sensor_id;sensor_type;location;lat;lon;timestamp;P1;durP1;ratioP1;P2;durP2;ratioP2
20832;SDS011;56075;51.264;7.150;2022-10-16T00:00:23;5.55;;;1.70;;
20832;SDS011;56075;51.264;7.150;2022-10-16T00:02:54;4.13;;;1.60;;
20832;SDS011;56075;51.264;7.150;2022-10-16T00:05:25;4.05;;;1.50;;
20832;SDS011;56075;51.264;7.150;2022-10-16T00:07:57;3.78;;;1.35;;
20832;SDS011;56075;51.264;7.150;2022-10-16T00:10:28;4.13;;;1.38;;
20832;SDS011;56075;51.264;7.150;2022-10-16T00:12:59;3.55;;;1.40;;
20832;SDS011;56075;51.264;7.150;2022-10-16T00:15:34;3.17;;;1.33;;
20832;SDS011;56075;51.264;7.150;2022-10-16T00:18:07;3.67;;;1.30;;
20832;SDS011;56075;51.264;7.150;2022-10-16T00:20:38;4.40;;;1.40;;
20832;SDS011;56075;51.264;7.150;2022-10-16T00:23:09;3.35;;;1.38;;
20832;SDS011;56075;51.264;7.150;2022-10-16T00:25:41;4.32;;;1.30;;
20832;SDS011;56075;51.264;7.150;2022-10-16T00:28:12;4.03;;;1.48;;
20832;SDS011;56075;51.264;7.150;2022-10-16T00:30:43;5.45;;;1.70;;
20832;SDS011;56075;51.264;7.150;2022-10-16T00:33:14;3.95;;;1.33;;
20832;SDS011;56075;51.264;7.150;2022-10-16T00:35:45;3.72;;;1.42;;
20832;SDS011;56075;51.264;7.150;2022-10-16T00:38:16;4.38;;;1.40;;
20832;SDS011;56075;51.264;7.150;2022-10-16T00:40:47;3.40;;;1.40;;
20832;SDS011;56075;51.264;7.150;2022-10-16T00:46:11;5.82;;;1.80;;
20832;SDS011;56075;51.264;7.150;2022-10-16T00:48:46;4.38;;;1.33;;
20832;SDS011;56075;51.264;7.150;2022-10-16T00:51:25;4.25;;;1.40;;
20832;SDS011;56075;51.264;7.150;2022-10-16T00:54:04;2.95;;;1.42;;
20832;SDS011;56075;51.264;7.150;2022-10-16T00:56:39;4.07;;;1.60;;
20832;SDS011;56075;51.264;7.150;2022-10-16T00:59:15;4.97;;;1.40;;
20832;SDS011;56075;51.264;7.150;2022-10-16T01:01:49;2.38;;;1.20;;
20832;SDS011;56075;51.264;7.150;2022-10-16T01:04:21;5.40;;;1.42;;
20832;SDS011;56075;51.264;7.150;2022-10-16T01:10:23;2.45;;;1.30;;
20832;SDS011;56075;51.264;7.150;2022-10-16T01:13:12;2.03;;;1.20;;
20832;SDS011;56075;51.264;7.150;2022-10-16T01:15:52;4.93;;;1.48;;
20832;SDS011;56075;51.264;7.150;2022-10-16T01:21:43;5.10;;;1.70;;
20832;SDS011;56075;51.264;7.150;2022-10-16T01:27:13;5.80;;;1.50;;
20832;SDS011;56075;51.264;7.150;2022-10-16T01:29:56;4.65;;;1.20;;
20832;SDS011;56075;51.264;7.150;2022-10-16T01:35:29;7.30;;;1.35;;
20832;SDS011;56075;51.264;7.150;2022-10-16T01:38:05;2.50;;;1.23;;
20832;SDS011;56075;51.264;7.150;2022-10-16T01:40:46;4.25;;;1.30;;
20832;SDS011;56075;51.264;7.150;2022-10-16T01:43:22;3.47;;;1.40;;
20832;SDS011;56075;51.264;7.150;2022-10-16T01:46:01;4.20;;;1.48;;
20832;SDS011;56075;51.264;7.150;2022-10-16T01:48:33;3.70;;;1.35;;
20832;SDS011;56075;51.264;7.150;2022-10-16T01:51:06;5.35;;;1.30;;
20832;SDS011;56075;51.264;7.150;2022-10-16T01:53:42;3.90;;;1.50;;
20832;SDS011;56075;51.264;7.150;2022-10-16T01:56:18;4.13;;;1.30;;
20832;SDS011;56075;51.264;7.150;2022-10-16T01:59:03;2.92;;;1.30;;
20832;SDS011;56075;51.264;7.150;2022-10-16T02:01:38;3.75;;;1.40;;
20832;SDS011;56075;51.264;7.150;2022-10-16T02:04:26;2.78;;;1.25;;
20832;SDS011;56075;51.264;7.150;2022-10-16T02:07:01;3.30;;;1.40;;
20832;SDS011;56075;51.264;7.150;2022-10-16T02:09:32;4.88;;;1.33;;
20832;SDS011;56075;51.264;7.150;2022-10-16T02:12:15;2.00;;;1.08;;
20832;SDS011;56075;51.264;7.150;2022-10-16T02:14:54;4.05;;;1.30;;
20832;SDS011;56075;51.264;7.150;2022-10-16T02:17:25;3.30;;;1.30;;
20832;SDS011;56075;51.264;7.150;2022-10-16T02:19:57;6.15;;;1.40;;
20832;SDS011;56075;51.264;7.150;2022-10-16T02:22:32;3.67;;;1.40;;
20832;SDS011;56075;51.264;7.150;2022-10-16T02:28:09;2.95;;;1.08;;
20832;SDS011;56075;51.264;7.150;2022-10-16T02:30:56;2.55;;;1.10;;
20832;SDS011;56075;51.264;7.150;2022-10-16T02:33:30;3.13;;;1.25;;
20832;SDS011;56075;51.264;7.150;2022-10-16T02:36:02;4.05;;;1.10;;
20832;SDS011;56075;51.264;7.150;2022-10-16T02:38:34;3.60;;;1.20;;
20832;SDS011;56075;51.264;7.150;2022-10-16T02:41:07;2.58;;;1.27;;
20832;SDS011;56075;51.264;7.150;2022-10-16T02:43:39;2.42;;;1.20;;
20832;SDS011;56075;51.264;7.150;2022-10-16T02:46:10;4.05;;;1.23;;
20832;SDS011;56075;51.264;7.150;2022-10-16T02:48:41;4.65;;;1.38;;
20832;SDS011;56075;51.264;7.150;2022-10-16T02:51:12;2.03;;;1.00;;
20832;SDS011;56075;51.264;7.150;2022-10-16T02:53:43;3.45;;;1.27;;
20832;SDS011;56075;51.264;7.150;2022-10-16T02:56:15;2.05;;;1.20;;
20832;SDS011;56075;51.264;7.150;2022-10-16T02:58:46;3.20;;;1.20;;
20832;SDS011;56075;51.264;7.150;2022-10-16T03:01:17;5.50;;;1.58;;
20832;SDS011;56075;51.264;7.150;2022-10-16T03:03:48;2.90;;;1.20;;
20832;SDS011;56075;51.264;7.150;2022-10-16T03:06:20;6.57;;;1.23;;
20832;SDS011;56075;51.264;7.150;2022-10-16T03:08:51;3.17;;;1.30;;
20832;SDS011;56075;51.264;7.150;2022-10-16T03:11:22;9.23;;;1.15;;
20832;SDS011;56075;51.264;7.150;2022-10-16T03:13:53;6.18;;;1.30;;
20832;SDS011;56075;51.264;7.150;2022-10-16T03:16:24;3.25;;;1.27;;
20832;SDS011;56075;51.264;7.150;2022-10-16T03:18:55;3.05;;;1.10;;
20832;SDS011;56075;51.264;7.150;2022-10-16T03:21:26;2.40;;;1.20;;
20832;SDS011;56075;51.264;7.150;2022-10-16T03:23:57;5.78;;;1.25;;
20832;SDS011;56075;51.264;7.150;2022-10-16T03:26:29;4.63;;;1.40;;
20832;SDS011;56075;51.264;7.150;2022-10-16T03:29:00;8.50;;;1.27;;
20832;SDS011;56075;51.264;7.150;2022-10-16T03:31:33;4.93;;;1.52;;
20832;SDS011;56075;51.264;7.150;2022-10-16T03:34:04;3.60;;;1.20;;
20832;SDS011;56075;51.264;7.150;2022-10-16T03:36:35;4.88;;;1.50;;
20832;SDS011;56075;51.264;7.150;2022-10-16T03:39:06;2.22;;;1.27;;
20832;SDS011;56075;51.264;7.150;2022-10-16T03:41:38;7.28;;;1.33;;
20832;SDS011;56075;51.264;7.150;2022-10-16T03:44:09;3.88;;;1.40;;
20832;SDS011;56075;51.264;7.150;2022-10-16T03:46:40;2.42;;;1.00;;
20832;SDS011;56075;51.264;7.150;2022-10-16T03:49:11;5.25;;;1.20;;
20832;SDS011;56075;51.264;7.150;2022-10-16T03:51:42;3.30;;;1.27;;
20832;SDS011;56075;51.264;7.150;2022-10-16T03:54:13;5.85;;;1.30;;
20832;SDS011;56075;51.264;7.150;2022-10-16T03:56:45;2.78;;;1.10;;
20832;SDS011;56075;51.264;7.150;2022-10-16T03:59:16;4.22;;;1.30;;
20832;SDS011;56075;51.264;7.150;2022-10-16T04:01:47;7.32;;;1.35;;
20832;SDS011;56075;51.264;7.150;2022-10-16T04:04:18;2.45;;;1.25;;
20832;SDS011;56075;51.264;7.150;2022-10-16T04:06:49;4.10;;;1.23;;
20832;SDS011;56075;51.264;7.150;2022-10-16T04:09:21;2.53;;;1.20;;
20832;SDS011;56075;51.264;7.150;2022-10-16T04:11:52;2.72;;;1.08;;
20832;SDS011;56075;51.264;7.150;2022-10-16T04:14:23;5.70;;;1.20;;
20832;SDS011;56075;51.264;7.150;2022-10-16T04:16:54;3.30;;;1.25;;
20832;SDS011;56075;51.264;7.150;2022-10-16T04:19:25;2.60;;;1.25;;
20832;SDS011;56075;51.264;7.150;2022-10-16T04:21:56;2.88;;;0.98;;
20832;SDS011;56075;51.264;7.150;2022-10-16T04:24:28;2.67;;;1.30;;
20832;SDS011;56075;51.264;7.150;2022-10-16T04:26:59;4.38;;;1.20;;
20832;SDS011;56075;51.264;7.150;2022-10-16T04:29:30;3.50;;;1.23;;
20832;SDS011;56075;51.264;7.150;2022-10-16T04:32:01;2.42;;;1.30;;
20832;SDS011;56075;51.264;7.150;2022-10-16T04:34:32;3.97;;;1.40;;
20832;SDS011;56075;51.264;7.150;2022-10-16T04:37:03;4.00;;;1.63;;
20832;SDS011;56075;51.264;7.150;2022-10-16T04:39:34;3.92;;;1.13;;
20832;SDS011;56075;51.264;7.150;2022-10-16T04:42:06;3.83;;;1.20;;
20832;SDS011;56075;51.264;7.150;2022-10-16T04:44:37;2.22;;;1.25;;
20832;SDS011;56075;51.264;7.150;2022-10-16T04:47:08;2.70;;;1.10;;
20832;SDS011;56075;51.264;7.150;2022-10-16T04:49:39;2.83;;;1.15;;
20832;SDS011;56075;51.264;7.150;2022-10-16T04:52:10;3.13;;;1.17;;
20832;SDS011;56075;51.264;7.150;2022-10-16T04:54:42;2.85;;;1.20;;
20832;SDS011;56075;51.264;7.150;2022-10-16T04:57:15;5.20;;;1.20;;
20832;SDS011;56075;51.264;7.150;2022-10-16T04:59:46;1.98;;;1.00;;
20832;SDS011;56075;51.264;7.150;2022-10-16T05:02:17;2.47;;;1.20;;
20832;SDS011;56075;51.264;7.150;2022-10-16T05:04:48;3.67;;;1.20;;
20832;SDS011;56075;51.264;7.150;2022-10-16T05:07:19;2.42;;;1.20;;
20832;SDS011;56075;51.264;7.150;2022-10-16T05:09:51;3.88;;;1.30;;
20832;SDS011;56075;51.264;7.150;2022-10-16T05:12:22;1.98;;;1.17;;
20832;SDS011;56075;51.264;7.150;2022-10-16T05:14:53;3.65;;;1.17;;
20832;SDS011;56075;51.264;7.150;2022-10-16T05:17:28;4.45;;;1.15;;
20832;SDS011;56075;51.264;7.150;2022-10-16T05:19:59;1.33;;;0.98;;
20832;SDS011;56075;51.264;7.150;2022-10-16T05:22:31;2.20;;;1.10;;
20832;SDS011;56075;51.264;7.150;2022-10-16T05:25:02;2.08;;;0.90;;
20832;SDS011;56075;51.264;7.150;2022-10-16T05:27:33;3.75;;;1.23;;
20832;SDS011;56075;51.264;7.150;2022-10-16T05:30:04;1.80;;;1.10;;
20832;SDS011;56075;51.264;7.150;2022-10-16T05:32:36;5.18;;;1.20;;
20832;SDS011;56075;51.264;7.150;2022-10-16T05:35:07;6.45;;;1.10;;
20832;SDS011;56075;51.264;7.150;2022-10-16T05:37:38;4.35;;;1.00;;
20832;SDS011;56075;51.264;7.150;2022-10-16T05:40:10;3.10;;;1.17;;
20832;SDS011;56075;51.264;7.150;2022-10-16T05:42:42;3.78;;;1.10;;
20832;SDS011;56075;51.264;7.150;2022-10-16T05:45:13;3.25;;;1.10;;
20832;SDS011;56075;51.264;7.150;2022-10-16T05:47:44;4.00;;;1.10;;
20832;SDS011;56075;51.264;7.150;2022-10-16T05:50:15;4.60;;;1.23;;
20832;SDS011;56075;51.264;7.150;2022-10-16T05:52:46;1.70;;;1.13;;
20832;SDS011;56075;51.264;7.150;2022-10-16T05:55:17;1.60;;;0.95;;
20832;SDS011;56075;51.264;7.150;2022-10-16T05:57:48;2.30;;;1.05;;
20832;SDS011;56075;51.264;7.150;2022-10-16T06:00:20;2.90;;;1.00;;
20832;SDS011;56075;51.264;7.150;2022-10-16T06:02:51;4.47;;;1.10;;
20832;SDS011;56075;51.264;7.150;2022-10-16T06:05:22;2.20;;;1.13;;
20832;SDS011;56075;51.264;7.150;2022-10-16T06:07:53;2.53;;;1.38;;
20832;SDS011;56075;51.264;7.150;2022-10-16T06:10:24;3.65;;;1.02;;
20832;SDS011;56075;51.264;7.150;2022-10-16T06:12:55;2.60;;;1.10;;
20832;SDS011;56075;51.264;7.150;2022-10-16T06:15:26;2.67;;;1.13;;
20832;SDS011;56075;51.264;7.150;2022-10-16T06:17:57;3.75;;;1.17;;
20832;SDS011;56075;51.264;7.150;2022-10-16T06:20:29;3.47;;;1.23;;
20832;SDS011;56075;51.264;7.150;2022-10-16T06:23:00;1.90;;;0.80;;
20832;SDS011;56075;51.264;7.150;2022-10-16T06:25:32;3.58;;;1.02;;
20832;SDS011;56075;51.264;7.150;2022-10-16T06:28:03;2.33;;;1.02;;
20832;SDS011;56075;51.264;7.150;2022-10-16T06:30:34;4.60;;;0.98;;
20832;SDS011;56075;51.264;7.150;2022-10-16T06:33:05;4.07;;;1.25;;
20832;SDS011;56075;51.264;7.150;2022-10-16T06:35:36;5.43;;;1.10;;
20832;SDS011;56075;51.264;7.150;2022-10-16T06:38:07;2.65;;;1.05;;
20832;SDS011;56075;51.264;7.150;2022-10-16T06:40:38;3.13;;;1.05;;
20832;SDS011;56075;51.264;7.150;2022-10-16T06:43:09;4.43;;;1.25;;
20832;SDS011;56075;51.264;7.150;2022-10-16T06:45:40;3.38;;;1.05;;
20832;SDS011;56075;51.264;7.150;2022-10-16T06:48:12;3.22;;;1.00;;
20832;SDS011;56075;51.264;7.150;2022-10-16T06:50:43;5.22;;;1.10;;
20832;SDS011;56075;51.264;7.150;2022-10-16T06:53:14;2.83;;;1.00;;
20832;SDS011;56075;51.264;7.150;2022-10-16T06:55:45;2.72;;;1.10;;
20832;SDS011;56075;51.264;7.150;2022-10-16T06:58:16;2.90;;;1.00;;
20832;SDS011;56075;51.264;7.150;2022-10-16T07:00:47;3.22;;;1.10;;
20832;SDS011;56075;51.264;7.150;2022-10-16T07:03:19;4.63;;;1.08;;
20832;SDS011;56075;51.264;7.150;2022-10-16T07:05:50;3.15;;;0.98;;
20832;SDS011;56075;51.264;7.150;2022-10-16T07:08:22;2.00;;;0.90;;
20832;SDS011;56075;51.264;7.150;2022-10-16T07:11:00;4.53;;;1.10;;
20832;SDS011;56075;51.264;7.150;2022-10-16T07:13:35;3.95;;;1.15;;
20832;SDS011;56075;51.264;7.150;2022-10-16T07:18:41;4.35;;;1.30;;
20832;SDS011;56075;51.264;7.150;2022-10-16T07:21:15;4.07;;;1.00;;
20832;SDS011;56075;51.264;7.150;2022-10-16T07:23:51;10.35;;;1.17;;
20832;SDS011;56075;51.264;7.150;2022-10-16T07:26:23;5.50;;;1.10;;
20832;SDS011;56075;51.264;7.150;2022-10-16T07:28:55;6.22;;;1.38;;
20832;SDS011;56075;51.264;7.150;2022-10-16T07:31:27;4.50;;;1.33;;
20832;SDS011;56075;51.264;7.150;2022-10-16T07:33:59;2.58;;;1.30;;
20832;SDS011;56075;51.264;7.150;2022-10-16T07:36:32;2.00;;;1.05;;
20832;SDS011;56075;51.264;7.150;2022-10-16T07:39:03;3.03;;;1.20;;
20832;SDS011;56075;51.264;7.150;2022-10-16T07:41:34;3.47;;;1.10;;
20832;SDS011;56075;51.264;7.150;2022-10-16T07:44:07;5.35;;;1.13;;
20832;SDS011;56075;51.264;7.150;2022-10-16T07:46:39;4.20;;;1.15;;
20832;SDS011;56075;51.264;7.150;2022-10-16T07:49:10;2.53;;;1.20;;
20832;SDS011;56075;51.264;7.150;2022-10-16T07:51:41;6.63;;;1.50;;
20832;SDS011;56075;51.264;7.150;2022-10-16T07:54:12;1.73;;;1.10;;
20832;SDS011;56075;51.264;7.150;2022-10-16T07:56:43;2.45;;;1.00;;
20832;SDS011;56075;51.264;7.150;2022-10-16T07:59:14;2.75;;;1.40;;
20832;SDS011;56075;51.264;7.150;2022-10-16T08:01:45;2.17;;;1.30;;
20832;SDS011;56075;51.264;7.150;2022-10-16T08:04:17;4.47;;;1.38;;
20832;SDS011;56075;51.264;7.150;2022-10-16T08:06:48;2.78;;;1.25;;
20832;SDS011;56075;51.264;7.150;2022-10-16T08:09:19;15.07;;;1.33;;
20832;SDS011;56075;51.264;7.150;2022-10-16T08:11:50;3.28;;;1.00;;
20832;SDS011;56075;51.264;7.150;2022-10-16T08:17:00;3.28;;;1.45;;
20832;SDS011;56075;51.264;7.150;2022-10-16T08:19:33;1.40;;;0.93;;
20832;SDS011;56075;51.264;7.150;2022-10-16T08:22:05;1.25;;;0.95;;
20832;SDS011;56075;51.264;7.150;2022-10-16T08:24:36;2.75;;;1.00;;
20832;SDS011;56075;51.264;7.150;2022-10-16T08:27:07;4.45;;;1.35;;
20832;SDS011;56075;51.264;7.150;2022-10-16T08:29:39;3.22;;;1.20;;
20832;SDS011;56075;51.264;7.150;2022-10-16T08:32:11;3.22;;;1.10;;
20832;SDS011;56075;51.264;7.150;2022-10-16T08:34:42;13.35;;;1.35;;
20832;SDS011;56075;51.264;7.150;2022-10-16T08:37:13;2.67;;;1.23;;
20832;SDS011;56075;51.264;7.150;2022-10-16T08:39:45;4.40;;;1.25;;
20832;SDS011;56075;51.264;7.150;2022-10-16T08:42:20;3.17;;;1.13;;
20832;SDS011;56075;51.264;7.150;2022-10-16T08:50:55;3.45;;;1.10;;
20832;SDS011;56075;51.264;7.150;2022-10-16T08:53:43;4.55;;;1.20;;
20832;SDS011;56075;51.264;7.150;2022-10-16T08:56:19;2.10;;;0.90;;
20832;SDS011;56075;51.264;7.150;2022-10-16T08:58:51;1.95;;;1.00;;
20832;SDS011;56075;51.264;7.150;2022-10-16T09:01:24;4.40;;;1.30;;
20832;SDS011;56075;51.264;7.150;2022-10-16T09:06:56;4.93;;;1.17;;
20832;SDS011;56075;51.264;7.150;2022-10-16T09:09:43;7.03;;;1.17;;
20832;SDS011;56075;51.264;7.150;2022-10-16T09:23:36;3.63;;;1.00;;
20832;SDS011;56075;51.264;7.150;2022-10-16T09:26:09;3.75;;;0.88;;
20832;SDS011;56075;51.264;7.150;2022-10-16T09:28:43;2.65;;;0.93;;
20832;SDS011;56075;51.264;7.150;2022-10-16T09:31:15;2.05;;;1.02;;
20832;SDS011;56075;51.264;7.150;2022-10-16T09:33:53;2.13;;;1.02;;
20832;SDS011;56075;51.264;7.150;2022-10-16T09:36:28;2.13;;;1.10;;
20832;SDS011;56075;51.264;7.150;2022-10-16T09:39:04;3.85;;;1.50;;
20832;SDS011;56075;51.264;7.150;2022-10-16T09:41:39;3.45;;;0.85;;
20832;SDS011;56075;51.264;7.150;2022-10-16T09:47:04;1.65;;;0.90;;
20832;SDS011;56075;51.264;7.150;2022-10-16T09:52:29;4.00;;;0.98;;
20832;SDS011;56075;51.264;7.150;2022-10-16T09:55:09;4.10;;;0.90;;
20832;SDS011;56075;51.264;7.150;2022-10-16T09:57:51;3.40;;;0.95;;
20832;SDS011;56075;51.264;7.150;2022-10-16T10:00:23;6.03;;;0.82;;
20832;SDS011;56075;51.264;7.150;2022-10-16T10:02:56;3.95;;;0.90;;
20832;SDS011;56075;51.264;7.150;2022-10-16T10:05:28;1.73;;;0.70;;
20832;SDS011;56075;51.264;7.150;2022-10-16T10:08:00;3.60;;;0.82;;
20832;SDS011;56075;51.264;7.150;2022-10-16T10:10:38;4.38;;;0.80;;
20832;SDS011;56075;51.264;7.150;2022-10-16T10:13:19;1.13;;;0.95;;
20832;SDS011;56075;51.264;7.150;2022-10-16T10:15:53;3.17;;;1.00;;
20832;SDS011;56075;51.264;7.150;2022-10-16T10:18:25;1.67;;;0.73;;
20832;SDS011;56075;51.264;7.150;2022-10-16T10:21:00;3.97;;;0.63;;
20832;SDS011;56075;51.264;7.150;2022-10-16T10:23:33;4.63;;;1.02;;
20832;SDS011;56075;51.264;7.150;2022-10-16T10:26:18;3.83;;;0.90;;
20832;SDS011;56075;51.264;7.150;2022-10-16T10:31:56;1.42;;;0.68;;
20832;SDS011;56075;51.264;7.150;2022-10-16T10:34:46;4.72;;;0.90;;
20832;SDS011;56075;51.264;7.150;2022-10-16T10:43:24;5.05;;;0.77;;
20832;SDS011;56075;51.264;7.150;2022-10-16T10:46:28;2.13;;;0.80;;
20832;SDS011;56075;51.264;7.150;2022-10-16T10:49:16;2.25;;;0.60;;
20832;SDS011;56075;51.264;7.150;2022-10-16T11:01:12;3.05;;;0.90;;
20832;SDS011;56075;51.264;7.150;2022-10-16T11:06:39;2.28;;;0.70;;
20832;SDS011;56075;51.264;7.150;2022-10-16T11:12:01;1.77;;;0.90;;
20832;SDS011;56075;51.264;7.150;2022-10-16T11:18:06;1.50;;;0.73;;
20832;SDS011;56075;51.264;7.150;2022-10-16T11:20:56;1.73;;;0.60;;
20832;SDS011;56075;51.264;7.150;2022-10-16T11:23:40;2.10;;;0.75;;
20832;SDS011;56075;51.264;7.150;2022-10-16T11:26:39;1.20;;;0.57;;
20832;SDS011;56075;51.264;7.150;2022-10-16T11:29:16;3.47;;;0.68;;
20832;SDS011;56075;51.264;7.150;2022-10-16T11:31:55;1.23;;;0.70;;
20832;SDS011;56075;51.264;7.150;2022-10-16T11:34:34;1.63;;;0.75;;
20832;SDS011;56075;51.264;7.150;2022-10-16T11:37:11;1.38;;;0.50;;
20832;SDS011;56075;51.264;7.150;2022-10-16T11:39:59;4.43;;;0.60;;
20832;SDS011;56075;51.264;7.150;2022-10-16T11:42:46;4.50;;;0.70;;
20832;SDS011;56075;51.264;7.150;2022-10-16T11:45:24;3.33;;;0.80;;
20832;SDS011;56075;51.264;7.150;2022-10-16T11:48:21;0.73;;;0.50;;
20832;SDS011;56075;51.264;7.150;2022-10-16T11:50:58;1.45;;;0.50;;
20832;SDS011;56075;51.264;7.150;2022-10-16T11:53:56;2.55;;;0.60;;
20832;SDS011;56075;51.264;7.150;2022-10-16T11:56:39;2.85;;;0.65;;
20832;SDS011;56075;51.264;7.150;2022-10-16T11:59:20;3.00;;;0.98;;
20832;SDS011;56075;51.264;7.150;2022-10-16T12:05:06;2.17;;;0.70;;
20832;SDS011;56075;51.264;7.150;2022-10-16T12:08:27;1.85;;;0.60;;
20832;SDS011;56075;51.264;7.150;2022-10-16T12:10:51;1.85;;;0.65;;
20832;SDS011;56075;51.264;7.150;2022-10-16T12:13:36;4.57;;;1.05;;
20832;SDS011;56075;51.264;7.150;2022-10-16T12:18:44;3.83;;;0.80;;
20832;SDS011;56075;51.264;7.150;2022-10-16T12:21:16;3.47;;;0.70;;
20832;SDS011;56075;51.264;7.150;2022-10-16T12:23:51;1.65;;;0.75;;
20832;SDS011;56075;51.264;7.150;2022-10-16T12:26:32;2.92;;;0.90;;
20832;SDS011;56075;51.264;7.150;2022-10-16T12:31:58;3.33;;;0.88;;
20832;SDS011;56075;51.264;7.150;2022-10-16T12:34:38;2.65;;;0.82;;
20832;SDS011;56075;51.264;7.150;2022-10-16T12:37:20;3.72;;;1.02;;
20832;SDS011;56075;51.264;7.150;2022-10-16T12:39:55;5.75;;;1.20;;
20832;SDS011;56075;51.264;7.150;2022-10-16T12:45:00;1.85;;;0.70;;
20832;SDS011;56075;51.264;7.150;2022-10-16T12:50:03;4.15;;;0.65;;
20832;SDS011;56075;51.264;7.150;2022-10-16T12:52:53;2.75;;;0.70;;
20832;SDS011;56075;51.264;7.150;2022-10-16T12:55:24;3.25;;;0.90;;
20832;SDS011;56075;51.264;7.150;2022-10-16T13:00:57;3.28;;;0.60;;
20832;SDS011;56075;51.264;7.150;2022-10-16T13:04:15;3.30;;;0.80;;
20832;SDS011;56075;51.264;7.150;2022-10-16T13:09:12;3.25;;;0.90;;
20832;SDS011;56075;51.264;7.150;2022-10-16T13:25:46;3.17;;;1.00;;
20832;SDS011;56075;51.264;7.150;2022-10-16T13:28:38;3.25;;;1.17;;
20832;SDS011;56075;51.264;7.150;2022-10-16T13:31:13;4.13;;;1.02;;
20832;SDS011;56075;51.264;7.150;2022-10-16T13:33:52;4.30;;;0.90;;
20832;SDS011;56075;51.264;7.150;2022-10-16T13:36:27;3.42;;;0.85;;
20832;SDS011;56075;51.264;7.150;2022-10-16T13:39:06;1.58;;;0.88;;
20832;SDS011;56075;51.264;7.150;2022-10-16T13:41:42;2.83;;;1.00;;
20832;SDS011;56075;51.264;7.150;2022-10-16T13:44:15;3.65;;;1.25;;
20832;SDS011;56075;51.264;7.150;2022-10-16T13:47:02;1.60;;;0.90;;
20832;SDS011;56075;51.264;7.150;2022-10-16T13:49:33;1.88;;;0.80;;
20832;SDS011;56075;51.264;7.150;2022-10-16T13:52:04;2.45;;;1.00;;
20832;SDS011;56075;51.264;7.150;2022-10-16T13:54:36;2.42;;;0.73;;
20832;SDS011;56075;51.264;7.150;2022-10-16T13:57:07;1.58;;;0.60;;
20832;SDS011;56075;51.264;7.150;2022-10-16T13:59:38;4.50;;;0.90;;
20832;SDS011;56075;51.264;7.150;2022-10-16T14:04:57;2.65;;;0.60;;
20832;SDS011;56075;51.264;7.150;2022-10-16T14:07:30;2.30;;;0.75;;
20832;SDS011;56075;51.264;7.150;2022-10-16T14:10:04;1.45;;;0.50;;
20832;SDS011;56075;51.264;7.150;2022-10-16T14:12:58;3.75;;;0.55;;
20832;SDS011;56075;51.264;7.150;2022-10-16T14:15:33;1.92;;;0.70;;
20832;SDS011;56075;51.264;7.150;2022-10-16T14:18:05;2.92;;;0.88;;
20832;SDS011;56075;51.264;7.150;2022-10-16T14:20:36;2.17;;;0.40;;
20832;SDS011;56075;51.264;7.150;2022-10-16T14:23:21;1.58;;;0.95;;
20832;SDS011;56075;51.264;7.150;2022-10-16T14:26:04;2.70;;;0.80;;
20832;SDS011;56075;51.264;7.150;2022-10-16T14:28:38;3.00;;;1.30;;
20832;SDS011;56075;51.264;7.150;2022-10-16T14:34:01;7.40;;;2.47;;
20832;SDS011;56075;51.264;7.150;2022-10-16T14:36:33;3.45;;;1.23;;
20832;SDS011;56075;51.264;7.150;2022-10-16T14:39:05;4.65;;;1.27;;
20832;SDS011;56075;51.264;7.150;2022-10-16T14:41:48;1.88;;;0.63;;
20832;SDS011;56075;51.264;7.150;2022-10-16T14:44:21;3.40;;;0.90;;
20832;SDS011;56075;51.264;7.150;2022-10-16T14:47:06;1.42;;;0.77;;
20832;SDS011;56075;51.264;7.150;2022-10-16T14:49:44;4.50;;;1.50;;
20832;SDS011;56075;51.264;7.150;2022-10-16T14:52:16;4.50;;;1.40;;
20832;SDS011;56075;51.264;7.150;2022-10-16T14:54:50;3.35;;;1.27;;
20832;SDS011;56075;51.264;7.150;2022-10-16T14:57:26;4.25;;;1.10;;
20832;SDS011;56075;51.264;7.150;2022-10-16T14:59:58;2.55;;;1.20;;
20832;SDS011;56075;51.264;7.150;2022-10-16T15:02:31;2.88;;;0.75;;
20832;SDS011;56075;51.264;7.150;2022-10-16T15:05:26;2.47;;;0.80;;
20832;SDS011;56075;51.264;7.150;2022-10-16T15:07:57;2.28;;;1.00;;
20832;SDS011;56075;51.264;7.150;2022-10-16T15:10:28;2.95;;;0.90;;
20832;SDS011;56075;51.264;7.150;2022-10-16T15:13:00;2.67;;;1.20;;
20832;SDS011;56075;51.264;7.150;2022-10-16T15:15:33;4.43;;;1.35;;
20832;SDS011;56075;51.264;7.150;2022-10-16T15:18:07;1.77;;;0.98;;
20832;SDS011;56075;51.264;7.150;2022-10-16T15:20:38;2.00;;;0.77;;
20832;SDS011;56075;51.264;7.150;2022-10-16T15:23:12;3.70;;;1.00;;
20832;SDS011;56075;51.264;7.150;2022-10-16T15:25:53;1.27;;;0.77;;
20832;SDS011;56075;51.264;7.150;2022-10-16T15:28:26;2.17;;;1.00;;
20832;SDS011;56075;51.264;7.150;2022-10-16T15:30:57;4.68;;;1.00;;
20832;SDS011;56075;51.264;7.150;2022-10-16T15:33:28;1.33;;;0.80;;
20832;SDS011;56075;51.264;7.150;2022-10-16T15:36:03;1.92;;;0.80;;
20832;SDS011;56075;51.264;7.150;2022-10-16T15:38:35;2.70;;;1.00;;
20832;SDS011;56075;51.264;7.150;2022-10-16T15:41:06;2.42;;;1.13;;
20832;SDS011;56075;51.264;7.150;2022-10-16T15:43:38;2.22;;;0.93;;
20832;SDS011;56075;51.264;7.150;2022-10-16T15:46:10;3.17;;;1.00;;
20832;SDS011;56075;51.264;7.150;2022-10-16T15:48:44;2.83;;;1.30;;
20832;SDS011;56075;51.264;7.150;2022-10-16T15:51:16;2.58;;;1.20;;
20832;SDS011;56075;51.264;7.150;2022-10-16T15:53:48;3.70;;;1.10;;
20832;SDS011;56075;51.264;7.150;2022-10-16T15:56:21;3.40;;;1.52;;
20832;SDS011;56075;51.264;7.150;2022-10-16T15:58:52;2.72;;;1.10;;
20832;SDS011;56075;51.264;7.150;2022-10-16T16:01:24;7.15;;;1.52;;
20832;SDS011;56075;51.264;7.150;2022-10-16T16:03:56;2.67;;;1.25;;
20832;SDS011;56075;51.264;7.150;2022-10-16T16:06:28;3.28;;;1.40;;
20832;SDS011;56075;51.264;7.150;2022-10-16T16:08:59;2.25;;;0.98;;
20832;SDS011;56075;51.264;7.150;2022-10-16T16:11:34;6.45;;;1.42;;
20832;SDS011;56075;51.264;7.150;2022-10-16T16:14:10;5.10;;;1.65;;
20832;SDS011;56075;51.264;7.150;2022-10-16T16:16:43;2.65;;;1.42;;
20832;SDS011;56075;51.264;7.150;2022-10-16T16:19:15;4.43;;;1.52;;
20832;SDS011;56075;51.264;7.150;2022-10-16T16:21:48;4.20;;;1.27;;
20832;SDS011;56075;51.264;7.150;2022-10-16T16:24:20;2.97;;;1.10;;
20832;SDS011;56075;51.264;7.150;2022-10-16T16:26:51;5.13;;;1.17;;
20832;SDS011;56075;51.264;7.150;2022-10-16T16:29:22;3.70;;;1.10;;
20832;SDS011;56075;51.264;7.150;2022-10-16T16:31:53;3.03;;;1.30;;
20832;SDS011;56075;51.264;7.150;2022-10-16T16:34:27;3.17;;;1.10;;
20832;SDS011;56075;51.264;7.150;2022-10-16T16:36:59;2.42;;;0.95;;
20832;SDS011;56075;51.264;7.150;2022-10-16T16:39:30;3.08;;;1.33;;
20832;SDS011;56075;51.264;7.150;2022-10-16T16:42:01;7.18;;;2.00;;
20832;SDS011;56075;51.264;7.150;2022-10-16T16:44:34;4.55;;;1.65;;
20832;SDS011;56075;51.264;7.150;2022-10-16T16:47:06;7.28;;;1.80;;
20832;SDS011;56075;51.264;7.150;2022-10-16T16:49:38;4.43;;;1.85;;
20832;SDS011;56075;51.264;7.150;2022-10-16T16:52:10;3.50;;;1.20;;
20832;SDS011;56075;51.264;7.150;2022-10-16T16:54:42;3.88;;;1.30;;
20832;SDS011;56075;51.264;7.150;2022-10-16T16:57:15;3.50;;;1.23;;
20832;SDS011;56075;51.264;7.150;2022-10-16T16:59:46;6.07;;;1.20;;
20832;SDS011;56075;51.264;7.150;2022-10-16T17:02:20;5.10;;;1.10;;
20832;SDS011;56075;51.264;7.150;2022-10-16T17:04:51;2.28;;;1.15;;
20832;SDS011;56075;51.264;7.150;2022-10-16T17:07:22;2.63;;;1.30;;
20832;SDS011;56075;51.264;7.150;2022-10-16T17:09:55;3.45;;;1.05;;
20832;SDS011;56075;51.264;7.150;2022-10-16T17:12:28;2.28;;;1.10;;
20832;SDS011;56075;51.264;7.150;2022-10-16T17:15:00;2.28;;;1.20;;
20832;SDS011;56075;51.264;7.150;2022-10-16T17:17:32;2.58;;;1.13;;
20832;SDS011;56075;51.264;7.150;2022-10-16T17:20:03;4.85;;;1.20;;
20832;SDS011;56075;51.264;7.150;2022-10-16T17:22:34;3.30;;;1.23;;
20832;SDS011;56075;51.264;7.150;2022-10-16T17:25:06;2.08;;;1.00;;